sensor_id;sensor_type;location;lat;lon;timestamp;temperature;humidity
22623;DHT22;11478;51.094;7.030;2023-09-08T00:01:28;15.40;99.90
22623;DHT22;11478;51.094;7.030;2023-09-08T00:03:53;15.40;99.90
22623;DHT22;11478;51.094;7.030;2023-09-08T00:06:19;15.40;99.90
22623;DHT22;11478;51.094;7.030;2023-09-08T00:08:45;15.40;99.90
22623;DHT22;11478;51.094;7.030;2023-09-08T00:11:11;15.30;99.90
22623;DHT22;11478;51.094;7.030;2023-09-08T00:13:37;15.40;99.90
22623;DHT22;11478;51.094;7.030;2023-09-08T00:16:17;15.30;99.90
22623;DHT22;11478;51.094;7.030;2023-09-08T00:18:43;15.30;99.90
22623;DHT22;11478;51.094;7.030;2023-09-08T00:21:11;15.30;99.90
22623;DHT22;11478;51.094;7.030;2023-09-08T00:23:37;15.30;99.90
22623;DHT22;11478;51.094;7.030;2023-09-08T00:26:15;15.20;99.90
22623;DHT22;11478;51.094;7.030;2023-09-08T00:28:41;15.20;99.90
22623;DHT22;11478;51.094;7.030;2023-09-08T00:31:07;15.20;99.90
22623;DHT22;11478;51.094;7.030;2023-09-08T00:33:33;15.20;99.90
22623;DHT22;11478;51.094;7.030;2023-09-08T00:36:03;15.20;99.90
22623;DHT22;11478;51.094;7.030;2023-09-08T00:38:30;15.20;99.90
22623;DHT22;11478;51.094;7.030;2023-09-08T00:40:56;15.20;99.90
22623;DHT22;11478;51.094;7.030;2023-09-08T00:43:21;15.10;99.90
22623;DHT22;11478;51.094;7.030;2023-09-08T00:45:57;15.10;99.90
22623;DHT22;11478;51.094;7.030;2023-09-08T00:48:25;15.10;99.90
22623;DHT22;11478;51.094;7.030;2023-09-08T00:50:53;15.10;99.90
22623;DHT22;11478;51.094;7.030;2023-09-08T00:53:19;15.10;99.90
22623;DHT22;11478;51.094;7.030;2023-09-08T00:55:45;15.00;99.90
22623;DHT22;11478;51.094;7.030;2023-09-08T00:58:15;15.10;99.90
22623;DHT22;11478;51.094;7.030;2023-09-08T01:00:41;15.00;99.90
22623;DHT22;11478;51.094;7.030;2023-09-08T01:03:12;15.00;99.90
22623;DHT22;11478;51.094;7.030;2023-09-08T01:05:38;15.00;99.90
22623;DHT22;11478;51.094;7.030;2023-09-08T01:08:14;15.00;99.90
22623;DHT22;11478;51.094;7.030;2023-09-08T01:10:41;14.90;99.90
22623;DHT22;11478;51.094;7.030;2023-09-08T01:13:09;14.90;99.90
22623;DHT22;11478;51.094;7.030;2023-09-08T01:15:35;14.90;99.90
22623;DHT22;11478;51.094;7.030;2023-09-08T01:18:04;14.80;99.90
22623;DHT22;11478;51.094;7.030;2023-09-08T01:26:41;14.80;99.90
22623;DHT22;11478;51.094;7.030;2023-09-08T01:29:10;14.80;99.90
22623;DHT22;11478;51.094;7.030;2023-09-08T01:31:38;14.70;99.90
22623;DHT22;11478;51.094;7.030;2023-09-08T01:34:05;14.80;99.90
22623;DHT22;11478;51.094;7.030;2023-09-08T01:36:35;14.70;99.90
22623;DHT22;11478;51.094;7.030;2023-09-08T01:39:14;14.70;99.90
22623;DHT22;11478;51.094;7.030;2023-09-08T01:41:39;14.70;99.90
22623;DHT22;11478;51.094;7.030;2023-09-08T01:44:14;14.70;99.90
22623;DHT22;11478;51.094;7.030;2023-09-08T01:46:39;14.70;99.90
22623;DHT22;11478;51.094;7.030;2023-09-08T01:49:24;14.70;99.90
22623;DHT22;11478;51.094;7.030;2023-09-08T01:51:50;14.60;99.90
22623;DHT22;11478;51.094;7.030;2023-09-08T01:54:16;14.60;99.90
22623;DHT22;11478;51.094;7.030;2023-09-08T01:56:49;14.60;99.90
22623;DHT22;11478;51.094;7.030;2023-09-08T01:59:17;14.60;99.90
22623;DHT22;11478;51.094;7.030;2023-09-08T02:01:44;14.60;99.90
22623;DHT22;11478;51.094;7.030;2023-09-08T02:04:09;14.60;99.90
22623;DHT22;11478;51.094;7.030;2023-09-08T02:06:40;14.60;99.90
22623;DHT22;11478;51.094;7.030;2023-09-08T02:09:07;14.50;99.90
22623;DHT22;11478;51.094;7.030;2023-09-08T02:11:34;14.50;99.90
22623;DHT22;11478;51.094;7.030;2023-09-08T02:14:00;14.50;99.90
22623;DHT22;11478;51.094;7.030;2023-09-08T02:16:33;14.50;99.90
22623;DHT22;11478;51.094;7.030;2023-09-08T02:18:59;14.50;99.90
22623;DHT22;11478;51.094;7.030;2023-09-08T02:21:26;14.50;99.90
22623;DHT22;11478;51.094;7.030;2023-09-08T02:23:51;14.50;99.90
22623;DHT22;11478;51.094;7.030;2023-09-08T02:26:29;14.50;99.90
22623;DHT22;11478;51.094;7.030;2023-09-08T02:28:58;14.50;99.90
22623;DHT22;11478;51.094;7.030;2023-09-08T02:31:34;14.50;99.90
22623;DHT22;11478;51.094;7.030;2023-09-08T02:34:00;14.50;99.90
22623;DHT22;11478;51.094;7.030;2023-09-08T02:36:32;14.50;99.90
22623;DHT22;11478;51.094;7.030;2023-09-08T02:38:58;14.50;99.90
22623;DHT22;11478;51.094;7.030;2023-09-08T02:41:29;14.40;99.90
22623;DHT22;11478;51.094;7.030;2023-09-08T02:43:56;14.40;99.90
22623;DHT22;11478;51.094;7.030;2023-09-08T02:46:23;14.40;99.90
22623;DHT22;11478;51.094;7.030;2023-09-08T02:48:49;14.40;99.90
22623;DHT22;11478;51.094;7.030;2023-09-08T02:51:15;14.40;99.90
22623;DHT22;11478;51.094;7.030;2023-09-08T02:53:41;14.40;99.90
22623;DHT22;11478;51.094;7.030;2023-09-08T02:56:07;14.40;99.90
22623;DHT22;11478;51.094;7.030;2023-09-08T02:58:38;14.40;99.90
22623;DHT22;11478;51.094;7.030;2023-09-08T03:01:14;14.40;99.90
22623;DHT22;11478;51.094;7.030;2023-09-08T03:03:41;14.40;99.90
22623;DHT22;11478;51.094;7.030;2023-09-08T03:06:09;14.40;99.90
22623;DHT22;11478;51.094;7.030;2023-09-08T03:08:35;14.40;99.90
22623;DHT22;11478;51.094;7.030;2023-09-08T03:11:05;14.40;99.90
22623;DHT22;11478;51.094;7.030;2023-09-08T03:13:32;14.40;99.90
22623;DHT22;11478;51.094;7.030;2023-09-08T03:16:06;14.40;99.90
22623;DHT22;11478;51.094;7.030;2023-09-08T03:18:33;14.30;99.90
22623;DHT22;11478;51.094;7.030;2023-09-08T03:21:03;14.30;99.90
22623;DHT22;11478;51.094;7.030;2023-09-08T03:23:41;14.30;99.90
22623;DHT22;11478;51.094;7.030;2023-09-08T03:26:08;14.20;99.90
22623;DHT22;11478;51.094;7.030;2023-09-08T03:28:36;14.20;99.90
22623;DHT22;11478;51.094;7.030;2023-09-08T03:31:12;14.20;99.90
22623;DHT22;11478;51.094;7.030;2023-09-08T03:33:38;14.10;99.90
22623;DHT22;11478;51.094;7.030;2023-09-08T03:36:04;14.10;99.90
22623;DHT22;11478;51.094;7.030;2023-09-08T03:38:31;14.10;99.90
22623;DHT22;11478;51.094;7.030;2023-09-08T03:40:57;14.00;99.90
22623;DHT22;11478;51.094;7.030;2023-09-08T03:43:26;14.00;99.90
22623;DHT22;11478;51.094;7.030;2023-09-08T03:45:56;14.00;99.90
22623;DHT22;11478;51.094;7.030;2023-09-08T03:48:39;14.00;99.90
22623;DHT22;11478;51.094;7.030;2023-09-08T03:51:05;14.00;99.90
22623;DHT22;11478;51.094;7.030;2023-09-08T03:53:41;13.90;99.90
22623;DHT22;11478;51.094;7.030;2023-09-08T03:56:34;14.00;99.90
22623;DHT22;11478;51.094;7.030;2023-09-08T03:59:03;14.00;99.90
22623;DHT22;11478;51.094;7.030;2023-09-08T04:01:30;13.90;99.90
22623;DHT22;11478;51.094;7.030;2023-09-08T04:03:56;13.90;99.90
22623;DHT22;11478;51.094;7.030;2023-09-08T04:06:35;13.80;99.90
22623;DHT22;11478;51.094;7.030;2023-09-08T04:09:01;13.80;99.90
22623;DHT22;11478;51.094;7.030;2023-09-08T04:11:39;13.80;99.90
22623;DHT22;11478;51.094;7.030;2023-09-08T04:14:07;13.80;99.90
22623;DHT22;11478;51.094;7.030;2023-09-08T04:16:33;13.80;99.90
22623;DHT22;11478;51.094;7.030;2023-09-08T04:18:59;13.80;99.90
22623;DHT22;11478;51.094;7.030;2023-09-08T04:21:28;13.80;99.90
22623;DHT22;11478;51.094;7.030;2023-09-08T04:23:54;13.80;99.90
22623;DHT22;11478;51.094;7.030;2023-09-08T04:26:21;13.80;99.90
22623;DHT22;11478;51.094;7.030;2023-09-08T04:28:47;13.80;99.90
22623;DHT22;11478;51.094;7.030;2023-09-08T04:31:14;13.80;99.90
22623;DHT22;11478;51.094;7.030;2023-09-08T04:33:40;13.80;99.90
22623;DHT22;11478;51.094;7.030;2023-09-08T04:36:09;13.80;99.90
22623;DHT22;11478;51.094;7.030;2023-09-08T04:38:36;13.80;99.90
22623;DHT22;11478;51.094;7.030;2023-09-08T04:41:03;13.90;99.90
22623;DHT22;11478;51.094;7.030;2023-09-08T04:43:29;13.80;99.90
22623;DHT22;11478;51.094;7.030;2023-09-08T04:45:56;13.90;99.90
22623;DHT22;11478;51.094;7.030;2023-09-08T04:48:22;13.90;99.90
22623;DHT22;11478;51.094;7.030;2023-09-08T04:50:50;13.80;99.90
22623;DHT22;11478;51.094;7.030;2023-09-08T04:53:16;13.80;99.90
22623;DHT22;11478;51.094;7.030;2023-09-08T04:55:44;13.90;99.90
22623;DHT22;11478;51.094;7.030;2023-09-08T04:58:10;13.80;99.90
22623;DHT22;11478;51.094;7.030;2023-09-08T05:00:40;13.80;99.90
22623;DHT22;11478;51.094;7.030;2023-09-08T05:03:06;13.80;99.90
22623;DHT22;11478;51.094;7.030;2023-09-08T05:05:41;13.80;99.90
22623;DHT22;11478;51.094;7.030;2023-09-08T05:08:07;13.80;99.90
22623;DHT22;11478;51.094;7.030;2023-09-08T05:10:33;13.80;99.90
22623;DHT22;11478;51.094;7.030;2023-09-08T05:12:59;13.80;99.90
22623;DHT22;11478;51.094;7.030;2023-09-08T05:15:26;13.80;99.90
22623;DHT22;11478;51.094;7.030;2023-09-08T05:17:52;13.80;99.90
22623;DHT22;11478;51.094;7.030;2023-09-08T05:20:19;13.80;99.90
22623;DHT22;11478;51.094;7.030;2023-09-08T05:22:44;13.80;99.90
22623;DHT22;11478;51.094;7.030;2023-09-08T05:25:10;13.80;99.90
22623;DHT22;11478;51.094;7.030;2023-09-08T05:27:36;13.80;99.90
22623;DHT22;11478;51.094;7.030;2023-09-08T05:30:04;13.80;99.90
22623;DHT22;11478;51.094;7.030;2023-09-08T05:32:30;13.80;99.90
22623;DHT22;11478;51.094;7.030;2023-09-08T05:34:59;13.80;99.90
22623;DHT22;11478;51.094;7.030;2023-09-08T05:37:25;13.80;99.90
22623;DHT22;11478;51.094;7.030;2023-09-08T05:39:51;13.80;99.90
22623;DHT22;11478;51.094;7.030;2023-09-08T05:42:16;13.80;99.90
22623;DHT22;11478;51.094;7.030;2023-09-08T05:44:49;13.80;99.90
22623;DHT22;11478;51.094;7.030;2023-09-08T05:47:15;13.80;99.90
22623;DHT22;11478;51.094;7.030;2023-09-08T05:49:41;13.80;99.90
22623;DHT22;11478;51.094;7.030;2023-09-08T05:52:07;13.80;99.90
22623;DHT22;11478;51.094;7.030;2023-09-08T05:54:34;13.80;99.90
22623;DHT22;11478;51.094;7.030;2023-09-08T05:57:00;13.80;99.90
22623;DHT22;11478;51.094;7.030;2023-09-08T05:59:26;13.90;99.90
22623;DHT22;11478;51.094;7.030;2023-09-08T06:01:54;13.90;99.90
22623;DHT22;11478;51.094;7.030;2023-09-08T06:04:20;13.90;99.90
22623;DHT22;11478;51.094;7.030;2023-09-08T06:06:46;14.00;99.90
22623;DHT22;11478;51.094;7.030;2023-09-08T06:09:11;14.00;99.90
22623;DHT22;11478;51.094;7.030;2023-09-08T06:11:37;14.10;99.90
22623;DHT22;11478;51.094;7.030;2023-09-08T06:14:03;14.10;99.90
22623;DHT22;11478;51.094;7.030;2023-09-08T06:16:33;14.20;99.90
22623;DHT22;11478;51.094;7.030;2023-09-08T06:19:01;14.30;99.90
22623;DHT22;11478;51.094;7.030;2023-09-08T06:21:29;14.30;99.90
22623;DHT22;11478;51.094;7.030;2023-09-08T06:23:55;14.40;99.90
22623;DHT22;11478;51.094;7.030;2023-09-08T06:26:35;14.40;99.90
22623;DHT22;11478;51.094;7.030;2023-09-08T06:29:00;14.50;99.90
22623;DHT22;11478;51.094;7.030;2023-09-08T06:31:27;14.60;99.90
22623;DHT22;11478;51.094;7.030;2023-09-08T06:33:52;14.60;99.90
22623;DHT22;11478;51.094;7.030;2023-09-08T06:36:19;14.70;99.90
22623;DHT22;11478;51.094;7.030;2023-09-08T06:38:48;14.80;99.90
22623;DHT22;11478;51.094;7.030;2023-09-08T06:41:16;14.90;99.90
22623;DHT22;11478;51.094;7.030;2023-09-08T06:43:43;15.00;99.90
22623;DHT22;11478;51.094;7.030;2023-09-08T06:46:23;15.10;99.90
22623;DHT22;11478;51.094;7.030;2023-09-08T06:48:53;15.30;99.90
22623;DHT22;11478;51.094;7.030;2023-09-08T06:51:20;15.40;99.90
22623;DHT22;11478;51.094;7.030;2023-09-08T06:53:54;15.50;99.90
22623;DHT22;11478;51.094;7.030;2023-09-08T06:56:26;15.60;99.90
22623;DHT22;11478;51.094;7.030;2023-09-08T06:58:52;15.70;99.90
22623;DHT22;11478;51.094;7.030;2023-09-08T07:01:18;15.80;99.90
22623;DHT22;11478;51.094;7.030;2023-09-08T07:03:44;16.00;99.90
22623;DHT22;11478;51.094;7.030;2023-09-08T07:09:39;16.40;99.90
22623;DHT22;11478;51.094;7.030;2023-09-08T07:12:05;16.60;99.90
22623;DHT22;11478;51.094;7.030;2023-09-08T07:21:28;17.30;99.90
22623;DHT22;11478;51.094;7.030;2023-09-08T07:24:01;17.40;99.90
22623;DHT22;11478;51.094;7.030;2023-09-08T07:36:36;18.00;99.90
22623;DHT22;11478;51.094;7.030;2023-09-08T07:39:13;18.10;99.90
22623;DHT22;11478;51.094;7.030;2023-09-08T07:41:40;18.30;99.90
22623;DHT22;11478;51.094;7.030;2023-09-08T07:44:17;18.30;99.90
22623;DHT22;11478;51.094;7.030;2023-09-08T07:46:43;18.50;99.90
22623;DHT22;11478;51.094;7.030;2023-09-08T07:49:44;18.50;99.90
22623;DHT22;11478;51.094;7.030;2023-09-08T07:52:11;18.70;99.90
22623;DHT22;11478;51.094;7.030;2023-09-08T07:54:37;18.90;99.90
22623;DHT22;11478;51.094;7.030;2023-09-08T07:57:08;19.00;99.90
22623;DHT22;11478;51.094;7.030;2023-09-08T07:59:36;19.20;99.90
22623;DHT22;11478;51.094;7.030;2023-09-08T08:02:07;19.40;99.90
22623;DHT22;11478;51.094;7.030;2023-09-08T08:04:33;19.60;99.90
22623;DHT22;11478;51.094;7.030;2023-09-08T08:07:05;19.80;99.90
22623;DHT22;11478;51.094;7.030;2023-09-08T08:09:34;19.90;99.90
22623;DHT22;11478;51.094;7.030;2023-09-08T08:12:01;20.00;99.90
22623;DHT22;11478;51.094;7.030;2023-09-08T08:14:29;20.30;99.90
22623;DHT22;11478;51.094;7.030;2023-09-08T08:17:32;20.30;99.90
22623;DHT22;11478;51.094;7.030;2023-09-08T08:19:58;20.40;99.90
22623;DHT22;11478;51.094;7.030;2023-09-08T08:22:41;20.50;99.90
22623;DHT22;11478;51.094;7.030;2023-09-08T08:25:07;20.60;99.90
22623;DHT22;11478;51.094;7.030;2023-09-08T08:27:46;20.60;99.90
22623;DHT22;11478;51.094;7.030;2023-09-08T08:30:12;20.80;99.90
22623;DHT22;11478;51.094;7.030;2023-09-08T08:32:38;20.90;99.90
22623;DHT22;11478;51.094;7.030;2023-09-08T08:35:07;20.90;99.90
22623;DHT22;11478;51.094;7.030;2023-09-08T08:37:33;21.00;99.90
22623;DHT22;11478;51.094;7.030;2023-09-08T08:39:59;21.10;99.90
22623;DHT22;11478;51.094;7.030;2023-09-08T08:42:33;21.10;99.90
22623;DHT22;11478;51.094;7.030;2023-09-08T08:44:59;21.20;99.90
22623;DHT22;11478;51.094;7.030;2023-09-08T08:47:27;21.40;99.90
22623;DHT22;11478;51.094;7.030;2023-09-08T08:49:56;21.70;99.90
22623;DHT22;11478;51.094;7.030;2023-09-08T08:52:38;22.10;99.90
22623;DHT22;11478;51.094;7.030;2023-09-08T08:55:05;22.40;99.90
22623;DHT22;11478;51.094;7.030;2023-09-08T08:57:32;22.50;99.90
22623;DHT22;11478;51.094;7.030;2023-09-08T09:00:02;22.50;99.90
22623;DHT22;11478;51.094;7.030;2023-09-08T09:02:42;22.40;99.90
22623;DHT22;11478;51.094;7.030;2023-09-08T09:05:13;22.50;99.90
22623;DHT22;11478;51.094;7.030;2023-09-08T09:07:41;22.50;99.90
22623;DHT22;11478;51.094;7.030;2023-09-08T09:10:09;22.70;99.90
22623;DHT22;11478;51.094;7.030;2023-09-08T09:12:38;22.80;99.90
22623;DHT22;11478;51.094;7.030;2023-09-08T09:15:06;22.80;99.90
22623;DHT22;11478;51.094;7.030;2023-09-08T09:17:41;22.80;99.90
22623;DHT22;11478;51.094;7.030;2023-09-08T09:20:18;22.90;99.90
22623;DHT22;11478;51.094;7.030;2023-09-08T09:22:49;23.00;99.90
22623;DHT22;11478;51.094;7.030;2023-09-08T09:25:28;23.00;99.90
22623;DHT22;11478;51.094;7.030;2023-09-08T09:27:58;23.10;99.90
22623;DHT22;11478;51.094;7.030;2023-09-08T09:30:27;23.30;99.90
22623;DHT22;11478;51.094;7.030;2023-09-08T09:33:32;23.40;99.90
22623;DHT22;11478;51.094;7.030;2023-09-08T09:36:23;23.40;99.90
22623;DHT22;11478;51.094;7.030;2023-09-08T09:38:49;23.40;99.90
22623;DHT22;11478;51.094;7.030;2023-09-08T09:41:30;23.30;99.90
22623;DHT22;11478;51.094;7.030;2023-09-08T09:43:59;23.20;99.90
22623;DHT22;11478;51.094;7.030;2023-09-08T09:46:29;23.10;99.90
22623;DHT22;11478;51.094;7.030;2023-09-08T09:48:58;23.20;99.90
22623;DHT22;11478;51.094;7.030;2023-09-08T09:51:49;23.30;99.90
22623;DHT22;11478;51.094;7.030;2023-09-08T09:54:21;23.60;99.90
22623;DHT22;11478;51.094;7.030;2023-09-08T09:56:49;23.70;99.90
22623;DHT22;11478;51.094;7.030;2023-09-08T09:59:23;23.90;99.90
22623;DHT22;11478;51.094;7.030;2023-09-08T10:01:50;24.30;99.90
22623;DHT22;11478;51.094;7.030;2023-09-08T10:04:16;24.70;99.90
22623;DHT22;11478;51.094;7.030;2023-09-08T10:06:43;24.90;99.90
22623;DHT22;11478;51.094;7.030;2023-09-08T10:09:13;25.10;99.90
22623;DHT22;11478;51.094;7.030;2023-09-08T10:12:14;25.10;99.90
22623;DHT22;11478;51.094;7.030;2023-09-08T10:14:49;25.20;99.90
22623;DHT22;11478;51.094;7.030;2023-09-08T10:17:19;25.10;99.90
22623;DHT22;11478;51.094;7.030;2023-09-08T10:19:51;25.10;99.90
22623;DHT22;11478;51.094;7.030;2023-09-08T10:22:20;25.10;99.90
22623;DHT22;11478;51.094;7.030;2023-09-08T10:24:50;25.00;99.90
22623;DHT22;11478;51.094;7.030;2023-09-08T10:27:21;25.10;99.90
22623;DHT22;11478;51.094;7.030;2023-09-08T10:29:49;25.10;99.90
22623;DHT22;11478;51.094;7.030;2023-09-08T10:32:17;25.20;99.90
22623;DHT22;11478;51.094;7.030;2023-09-08T10:34:45;25.30;99.90
22623;DHT22;11478;51.094;7.030;2023-09-08T10:37:50;25.40;99.90
22623;DHT22;11478;51.094;7.030;2023-09-08T10:40:29;25.30;99.90
22623;DHT22;11478;51.094;7.030;2023-09-08T10:43:20;25.20;99.90
22623;DHT22;11478;51.094;7.030;2023-09-08T10:45:47;25.00;99.90
22623;DHT22;11478;51.094;7.030;2023-09-08T10:48:20;24.90;99.90
22623;DHT22;11478;51.094;7.030;2023-09-08T10:50:48;24.80;99.90
22623;DHT22;11478;51.094;7.030;2023-09-08T10:53:17;24.80;99.90
22623;DHT22;11478;51.094;7.030;2023-09-08T10:55:44;24.90;99.90
22623;DHT22;11478;51.094;7.030;2023-09-08T10:58:35;25.00;99.90
22623;DHT22;11478;51.094;7.030;2023-09-08T11:01:04;25.10;99.90
22623;DHT22;11478;51.094;7.030;2023-09-08T11:06:06;25.20;99.90
22623;DHT22;11478;51.094;7.030;2023-09-08T11:09:05;25.20;99.90
22623;DHT22;11478;51.094;7.030;2023-09-08T11:11:33;25.10;99.90
22623;DHT22;11478;51.094;7.030;2023-09-08T11:14:14;25.10;99.90
22623;DHT22;11478;51.094;7.030;2023-09-08T11:16:43;25.20;99.90
22623;DHT22;11478;51.094;7.030;2023-09-08T11:22:15;25.40;99.90
22623;DHT22;11478;51.094;7.030;2023-09-08T11:24:47;25.40;99.90
22623;DHT22;11478;51.094;7.030;2023-09-08T11:27:14;25.40;99.90
22623;DHT22;11478;51.094;7.030;2023-09-08T11:29:40;25.30;99.90
22623;DHT22;11478;51.094;7.030;2023-09-08T11:32:09;25.40;99.90
22623;DHT22;11478;51.094;7.030;2023-09-08T11:34:36;25.40;99.90
22623;DHT22;11478;51.094;7.030;2023-09-08T11:37:11;25.40;99.90
22623;DHT22;11478;51.094;7.030;2023-09-08T11:39:42;25.50;99.90
22623;DHT22;11478;51.094;7.030;2023-09-08T11:42:23;25.50;99.90
22623;DHT22;11478;51.094;7.030;2023-09-08T11:44:49;25.60;99.90
22623;DHT22;11478;51.094;7.030;2023-09-08T11:47:33;25.70;99.90
22623;DHT22;11478;51.094;7.030;2023-09-08T11:49:59;25.80;99.90
22623;DHT22;11478;51.094;7.030;2023-09-08T11:52:30;26.10;99.90
22623;DHT22;11478;51.094;7.030;2023-09-08T11:54:56;26.10;99.90
22623;DHT22;11478;51.094;7.030;2023-09-08T11:57:24;26.00;99.90
22623;DHT22;11478;51.094;7.030;2023-09-08T11:59:50;26.00;99.90
22623;DHT22;11478;51.094;7.030;2023-09-08T12:02:28;26.10;99.90
22623;DHT22;11478;51.094;7.030;2023-09-08T12:04:54;26.10;99.90
22623;DHT22;11478;51.094;7.030;2023-09-08T12:07:45;26.00;99.90
22623;DHT22;11478;51.094;7.030;2023-09-08T12:10:16;25.90;99.90
22623;DHT22;11478;51.094;7.030;2023-09-08T12:12:53;25.80;99.90
22623;DHT22;11478;51.094;7.030;2023-09-08T12:15:40;25.90;99.90
22623;DHT22;11478;51.094;7.030;2023-09-08T12:18:12;26.00;99.90
22623;DHT22;11478;51.094;7.030;2023-09-08T12:20:41;26.10;99.90
22623;DHT22;11478;51.094;7.030;2023-09-08T12:23:28;26.20;99.90
22623;DHT22;11478;51.094;7.030;2023-09-08T12:25:57;26.10;99.90
22623;DHT22;11478;51.094;7.030;2023-09-08T12:28:23;26.00;99.90
22623;DHT22;11478;51.094;7.030;2023-09-08T12:30:57;25.90;99.90
22623;DHT22;11478;51.094;7.030;2023-09-08T12:33:26;25.80;99.90
22623;DHT22;11478;51.094;7.030;2023-09-08T12:36:10;25.70;99.90
22623;DHT22;11478;51.094;7.030;2023-09-08T12:38:36;25.60;99.90
22623;DHT22;11478;51.094;7.030;2023-09-08T12:41:11;25.60;99.90
22623;DHT22;11478;51.094;7.030;2023-09-08T12:43:40;25.60;99.90
22623;DHT22;11478;51.094;7.030;2023-09-08T12:46:09;25.70;99.90
22623;DHT22;11478;51.094;7.030;2023-09-08T12:48:35;25.70;99.90
22623;DHT22;11478;51.094;7.030;2023-09-08T12:51:02;25.80;99.90
22623;DHT22;11478;51.094;7.030;2023-09-08T12:53:35;25.90;99.90
22623;DHT22;11478;51.094;7.030;2023-09-08T12:56:08;26.00;99.90
22623;DHT22;11478;51.094;7.030;2023-09-08T12:58:36;25.90;99.90
22623;DHT22;11478;51.094;7.030;2023-09-08T13:01:02;26.00;99.90
22623;DHT22;11478;51.094;7.030;2023-09-08T13:03:31;26.10;99.90
22623;DHT22;11478;51.094;7.030;2023-09-08T13:05:57;26.20;99.90
22623;DHT22;11478;51.094;7.030;2023-09-08T13:08:24;26.20;99.90
22623;DHT22;11478;51.094;7.030;2023-09-08T13:10:50;26.20;99.90
22623;DHT22;11478;51.094;7.030;2023-09-08T13:13:20;26.10;99.90
22623;DHT22;11478;51.094;7.030;2023-09-08T13:15:46;26.10;99.90
22623;DHT22;11478;51.094;7.030;2023-09-08T13:18:13;26.00;99.90
22623;DHT22;11478;51.094;7.030;2023-09-08T13:20:39;26.00;99.90
22623;DHT22;11478;51.094;7.030;2023-09-08T13:23:06;26.00;99.90
22623;DHT22;11478;51.094;7.030;2023-09-08T13:25:32;26.00;99.90
22623;DHT22;11478;51.094;7.030;2023-09-08T13:28:00;26.00;99.90
22623;DHT22;11478;51.094;7.030;2023-09-08T13:30:29;25.90;99.90
22623;DHT22;11478;51.094;7.030;2023-09-08T13:32:57;26.00;99.90
22623;DHT22;11478;51.094;7.030;2023-09-08T13:35:23;26.00;99.90
22623;DHT22;11478;51.094;7.030;2023-09-08T13:37:54;26.10;99.90
22623;DHT22;11478;51.094;7.030;2023-09-08T13:40:20;26.10;99.90
22623;DHT22;11478;51.094;7.030;2023-09-08T13:42:49;26.00;99.90
22623;DHT22;11478;51.094;7.030;2023-09-08T13:45:15;26.00;99.90
22623;DHT22;11478;51.094;7.030;2023-09-08T13:47:41;26.10;99.90
22623;DHT22;11478;51.094;7.030;2023-09-08T13:50:07;26.10;99.90
22623;DHT22;11478;51.094;7.030;2023-09-08T13:52:34;26.10;99.90
22623;DHT22;11478;51.094;7.030;2023-09-08T13:55:03;26.10;99.90
22623;DHT22;11478;51.094;7.030;2023-09-08T13:57:47;26.20;99.90
22623;DHT22;11478;51.094;7.030;2023-09-08T14:00:14;26.30;99.90
22623;DHT22;11478;51.094;7.030;2023-09-08T14:02:40;26.20;99.90
22623;DHT22;11478;51.094;7.030;2023-09-08T14:05:07;26.20;99.90
22623;DHT22;11478;51.094;7.030;2023-09-08T14:07:35;26.20;99.90
22623;DHT22;11478;51.094;7.030;2023-09-08T14:10:02;26.20;99.90
22623;DHT22;11478;51.094;7.030;2023-09-08T14:12:44;26.10;99.90
22623;DHT22;11478;51.094;7.030;2023-09-08T14:15:10;26.10;99.90
22623;DHT22;11478;51.094;7.030;2023-09-08T14:17:51;26.20;99.90
22623;DHT22;11478;51.094;7.030;2023-09-08T14:20:19;26.10;99.90
22623;DHT22;11478;51.094;7.030;2023-09-08T14:22:46;26.10;99.90
22623;DHT22;11478;51.094;7.030;2023-09-08T14:25:12;26.00;99.90
22623;DHT22;11478;51.094;7.030;2023-09-08T14:27:54;26.00;99.90
22623;DHT22;11478;51.094;7.030;2023-09-08T14:30:22;26.00;99.90
22623;DHT22;11478;51.094;7.030;2023-09-08T14:32:58;26.00;99.90
22623;DHT22;11478;51.094;7.030;2023-09-08T14:35:24;26.00;99.90
22623;DHT22;11478;51.094;7.030;2023-09-08T14:38:06;26.00;99.90
22623;DHT22;11478;51.094;7.030;2023-09-08T14:40:33;26.00;99.90
22623;DHT22;11478;51.094;7.030;2023-09-08T14:43:02;26.00;99.90
22623;DHT22;11478;51.094;7.030;2023-09-08T14:45:30;26.00;99.90
22623;DHT22;11478;51.094;7.030;2023-09-08T14:47:58;26.00;99.90
22623;DHT22;11478;51.094;7.030;2023-09-08T14:50:24;26.10;99.90
22623;DHT22;11478;51.094;7.030;2023-09-08T14:52:53;26.10;99.90
22623;DHT22;11478;51.094;7.030;2023-09-08T14:55:19;26.10;99.90
22623;DHT22;11478;51.094;7.030;2023-09-08T14:57:48;26.10;99.90
22623;DHT22;11478;51.094;7.030;2023-09-08T15:00:16;26.00;99.90
22623;DHT22;11478;51.094;7.030;2023-09-08T15:02:48;26.00;99.90
22623;DHT22;11478;51.094;7.030;2023-09-08T15:05:14;25.90;99.90
22623;DHT22;11478;51.094;7.030;2023-09-08T15:07:50;25.80;99.90
22623;DHT22;11478;51.094;7.030;2023-09-08T15:10:16;25.80;99.90
22623;DHT22;11478;51.094;7.030;2023-09-08T15:12:45;25.70;99.90
22623;DHT22;11478;51.094;7.030;2023-09-08T15:15:14;25.70;99.90
22623;DHT22;11478;51.094;7.030;2023-09-08T15:17:41;25.70;99.90
22623;DHT22;11478;51.094;7.030;2023-09-08T15:20:10;25.70;99.90
22623;DHT22;11478;51.094;7.030;2023-09-08T15:22:39;25.70;99.90
22623;DHT22;11478;51.094;7.030;2023-09-08T15:25:05;25.60;99.90
22623;DHT22;11478;51.094;7.030;2023-09-08T15:27:36;25.60;99.90
22623;DHT22;11478;51.094;7.030;2023-09-08T15:30:03;25.50;99.90
22623;DHT22;11478;51.094;7.030;2023-09-08T15:32:43;25.50;99.90
22623;DHT22;11478;51.094;7.030;2023-09-08T15:35:10;25.40;99.90
22623;DHT22;11478;51.094;7.030;2023-09-08T15:37:44;25.40;99.90
22623;DHT22;11478;51.094;7.030;2023-09-08T15:40:14;25.40;99.90
22623;DHT22;11478;51.094;7.030;2023-09-08T15:42:54;25.40;99.90
22623;DHT22;11478;51.094;7.030;2023-09-08T15:45:20;25.40;99.90
22623;DHT22;11478;51.094;7.030;2023-09-08T15:47:47;25.40;99.90
22623;DHT22;11478;51.094;7.030;2023-09-08T15:50:17;25.30;99.90
22623;DHT22;11478;51.094;7.030;2023-09-08T15:52:58;25.20;99.90
22623;DHT22;11478;51.094;7.030;2023-09-08T15:55:24;25.20;99.90
22623;DHT22;11478;51.094;7.030;2023-09-08T15:57:50;25.20;99.90
22623;DHT22;11478;51.094;7.030;2023-09-08T16:00:16;25.10;99.90
22623;DHT22;11478;51.094;7.030;2023-09-08T16:02:44;25.10;99.90
22623;DHT22;11478;51.094;7.030;2023-09-08T16:05:10;25.00;99.90
22623;DHT22;11478;51.094;7.030;2023-09-08T16:07:38;24.90;99.90
22623;DHT22;11478;51.094;7.030;2023-09-08T16:10:05;24.80;99.90
22623;DHT22;11478;51.094;7.030;2023-09-08T16:12:32;24.80;99.90
22623;DHT22;11478;51.094;7.030;2023-09-08T16:14:58;24.70;99.90
22623;DHT22;11478;51.094;7.030;2023-09-08T16:17:25;24.60;99.90
22623;DHT22;11478;51.094;7.030;2023-09-08T16:19:54;24.60;99.90